• Join FlightAware (Why Join?)
  • Login
  • US Flag 
03:56AM EST


 

Airport Tracker/Info


-or-


 

Live Flight TrackerFlight Track Log ✈ CCA1204 ✈ 21-Apr-2013 ✈ ZLXY / XIY - ZBAA / PEK

Flight Track Log - Related Links

Times and Time Zones

All times are in EDT time to prevent confusion due to time zone crossing. See the CCA1204 flight status page for this flight to view local times or setup timezone preferences in your user account.

Time Position Orientation Groundspeed Altitude Reporting Facility
EDT Latitude Longitude Course Direction KTS MPH feet Rate Location/Type
10:39PM 34.6943 109.0588 46° Northeast  Level Estimated
10:40PM 34.7560 109.1359 46° Northeast  Level Estimated
10:41PM 34.8176 109.2131 46° Northeast  Level Estimated
10:42PM 34.8792 109.2904 46° Northeast  Level Estimated
10:43PM 34.9407 109.3679 46° Northeast  Level Estimated
10:44PM 35.0022 109.4454 46° Northeast  Level Estimated
10:45PM 35.0636 109.5231 46° Northeast  Level Estimated
10:46PM 35.1250 109.6009 46° Northeast  Level Estimated
10:47PM 35.1863 109.6788 46° Northeast  Level Estimated
10:48PM 35.2476 109.7568 46° Northeast  Level Estimated
10:49PM 35.3088 109.8350 46° Northeast  Level Estimated
10:50PM 35.3700 109.9132 46° Northeast  Level Estimated
10:51PM 35.4311 109.9916 46° Northeast  Level Estimated
10:52PM 35.4922 110.0701 46° Northeast  Level Estimated
10:53PM 35.5532 110.1487 46° Northeast  Level Estimated
10:54PM 35.6142 110.2275 46° Northeast  Level Estimated
10:55PM 35.6751 110.3063 46° Northeast  Level Estimated
10:56PM 35.7360 110.3853 46° Northeast  Level Estimated
10:57PM 35.7968 110.4644 47° Northeast  Level Estimated
10:58PM 35.8576 110.5436 47° Northeast  Level Estimated
10:59PM 35.9183 110.6230 47° Northeast  Level Estimated
11:00PM 35.9789 110.7024 47° Northeast  Level Estimated
11:01PM 36.0396 110.7820 47° Northeast  Level Estimated
11:02PM 36.1001 110.8617 47° Northeast  Level Estimated
11:03PM 36.1606 110.9416 47° Northeast  Level Estimated
11:04PM 36.2211 111.0215 47° Northeast  Level Estimated
11:05PM 36.2815 111.1016 47° Northeast  Level Estimated
11:06PM 36.3418 111.1818 47° Northeast  Level Estimated
11:07PM 36.4021 111.2621 47° Northeast  Level Estimated
11:08PM 36.4623 111.3426 47° Northeast  Level Estimated
11:09PM 36.5225 111.4231 47° Northeast  Level Estimated
11:10PM 36.5826 111.5039 47° Northeast  Level Estimated
11:11PM 36.6427 111.5847 47° Northeast  Level Estimated
11:12PM 36.7027 111.6656 47° Northeast  Level Estimated
11:13PM 36.7627 111.7467 47° Northeast  Level Estimated
11:14PM 36.8226 111.8279 47° Northeast  Level Estimated
11:15PM 36.8825 111.9092 47° Northeast  Level Estimated
11:16PM 36.9422 111.9907 47° Northeast  Level Estimated
11:17PM 37.0020 112.0723 47° Northeast  Level Estimated
11:18PM 37.0617 112.1540 48° Northeast  Level Estimated
11:19PM 37.1213 112.2359 48° Northeast  Level Estimated
11:20PM 37.1809 112.3178 48° Northeast  Level Estimated
11:21PM 37.2404 112.3999 48° Northeast  Level Estimated
11:22PM 37.2999 112.4822 48° Northeast  Level Estimated
11:23PM 37.3593 112.5645 48° Northeast  Level Estimated
11:24PM 37.4186 112.6470 48° Northeast  Level Estimated
11:25PM 37.4779 112.7296 48° Northeast  Level Estimated
11:26PM 37.5371 112.8124 48° Northeast  Level Estimated
11:27PM 37.5963 112.8953 48° Northeast  Level Estimated
11:28PM 37.6554 112.9783 48° Northeast  Level Estimated
11:29PM 37.7145 113.0615 48° Northeast  Level Estimated
11:30PM 37.7735 113.1447 48° Northeast  Level Estimated
11:31PM 37.8324 113.2282 48° Northeast  Level Estimated
11:32PM 37.8913 113.3117 48° Northeast  Level Estimated
11:33PM 37.9501 113.3954 48° Northeast  Level Estimated
11:34PM 38.0089 113.4792 48° Northeast  Level Estimated
11:35PM 38.0676 113.5632 48° Northeast  Level Estimated
11:36PM 38.1262 113.6472 48° Northeast  Level Estimated
11:37PM 38.1848 113.7315 48° Northeast  Level Estimated
11:38PM 38.2433 113.8158 49° Northeast  Level Estimated
11:39PM 38.3018 113.9003 49° Northeast  Level Estimated
11:40PM 38.3602 113.9849 49° Northeast  Level Estimated
11:41PM 38.4185 114.0697 49° Northeast  Level Estimated
11:42PM 38.4768 114.1546 49° Northeast  Level Estimated
11:43PM 38.5350 114.2397 49° Northeast  Level Estimated
11:44PM 38.5932 114.3248 49° Northeast  Level Estimated
11:45PM 38.6513 114.4102 49° Northeast  Level Estimated
11:46PM 38.7093 114.4956 49° Northeast  Level Estimated
11:47PM 38.7673 114.5812 49° Northeast  Level Estimated
11:48PM 38.8252 114.6669 49° Northeast  Level Estimated
11:49PM 38.8830 114.7528 49° Northeast  Level Estimated
11:50PM 38.9408 114.8388 49° Northeast  Level Estimated
11:51PM 38.9986 114.9250 49° Northeast  Level Estimated
11:52PM 39.0562 115.0113 49° Northeast  Level Estimated
11:53PM 39.1138 115.0977 49° Northeast  Level Estimated
11:54PM 39.1713 115.1842 49° Northeast  Level Estimated
11:55PM 39.2288 115.2710 49° Northeast  Level Estimated
11:56PM 39.2862 115.3578 49° Northeast  Level Estimated
11:57PM 39.3435 115.4448 50° Northeast  Level Estimated
11:58PM 39.4008 115.5320 50° Northeast  Level Estimated
11:59PM 39.4580 115.6193 50° Northeast  Level Estimated
12:00AM 39.5151 115.7067 50° Northeast  Level Estimated
12:01AM 39.5722 115.7943 50° Northeast  Level Estimated
12:02AM 39.6292 115.8820 50° Northeast  Level Estimated